createdAt,value
2017-05-14T00:00:14.862Z,16.04
2017-05-14T00:00:55.495Z,16.1
2017-05-14T00:01:36.154Z,16.05
2017-05-14T00:02:16.774Z,16.09
2017-05-14T00:02:57.394Z,16.1
2017-05-14T00:03:38.009Z,16.02
2017-05-14T00:04:18.605Z,16.08
2017-05-14T00:04:59.216Z,16.1
2017-05-14T00:05:39.883Z,16.1
2017-05-14T00:06:20.460Z,16.01
2017-05-14T00:07:01.055Z,16.04
2017-05-14T00:07:41.672Z,16
2017-05-14T00:08:22.271Z,16.08
2017-05-14T00:09:02.861Z,16.09
2017-05-14T00:09:43.456Z,16.08
2017-05-14T00:10:24.040Z,16.04
2017-05-14T00:11:04.640Z,16.02
2017-05-14T00:11:45.208Z,16.02
2017-05-14T00:12:25.794Z,16
2017-05-14T00:13:06.425Z,16.09
2017-05-14T00:13:46.972Z,16.01
2017-05-14T00:14:27.546Z,16.01
2017-05-14T00:15:08.125Z,16.01
2017-05-14T00:15:48.715Z,16.1
2017-05-14T00:16:29.334Z,16.09
2017-05-14T00:17:09.943Z,16.09
2017-05-14T00:17:50.569Z,16.02
2017-05-14T00:18:31.189Z,16.08
2017-05-14T00:19:11.764Z,16.01
2017-05-14T00:19:52.359Z,16.04
2017-05-14T00:20:32.958Z,16.05
2017-05-14T00:21:13.559Z,16
2017-05-14T00:21:54.149Z,16.02
2017-05-14T00:22:34.731Z,16.04
2017-05-14T00:23:15.328Z,16.04
2017-05-14T00:23:55.907Z,16.02
2017-05-14T00:24:36.519Z,16.04
2017-05-14T00:25:17.101Z,16.02
2017-05-14T00:25:57.671Z,16.01
2017-05-14T00:26:38.232Z,16.09
2017-05-14T00:27:18.814Z,16.02
2017-05-14T00:27:59.404Z,16.02
2017-05-14T00:28:39.995Z,16.05
2017-05-14T00:29:20.577Z,16.02
2017-05-14T00:30:01.162Z,16.02
2017-05-14T00:30:41.753Z,16.01
2017-05-14T00:31:22.351Z,16.02
2017-05-14T00:32:02.964Z,16.01
2017-05-14T00:32:43.588Z,16.09
2017-05-14T00:33:24.181Z,16.04
2017-05-14T00:34:04.752Z,16.08
2017-05-14T00:34:45.332Z,16.01
2017-05-14T00:35:25.914Z,16.08
2017-05-14T00:36:06.489Z,16.01
2017-05-14T00:36:47.132Z,16.09
2017-05-14T00:37:27.711Z,16.1
2017-05-14T00:38:08.306Z,16.08
2017-05-14T00:38:48.873Z,16.05
2017-05-14T00:39:29.445Z,16.04
2017-05-14T00:40:10.012Z,16.08
2017-05-14T00:40:50.622Z,16.08
2017-05-14T00:41:31.236Z,16
2017-05-14T00:42:11.812Z,16.02
2017-05-14T00:42:52.387Z,16
2017-05-14T00:43:32.977Z,16
2017-05-14T00:44:13.546Z,15.98
2017-05-14T00:44:54.119Z,16.05
2017-05-14T00:45:34.724Z,16
2017-05-14T00:46:15.303Z,15.98
2017-05-14T00:46:55.884Z,15.98
2017-05-14T00:47:36.508Z,16.08
2017-05-14T00:48:17.064Z,15.97
2017-05-14T00:48:57.679Z,15.98
2017-05-14T00:49:38.268Z,16.05
2017-05-14T00:50:18.841Z,16.01
2017-05-14T00:50:59.433Z,15.97
2017-05-14T00:51:40.031Z,15.98
2017-05-14T00:52:20.591Z,15.92
2017-05-14T00:53:01.178Z,16.01
2017-05-14T00:53:41.764Z,15.97
2017-05-14T00:54:22.381Z,16.01
2017-05-14T00:55:02.949Z,16.01
2017-05-14T00:55:43.545Z,15.97
2017-05-14T00:56:24.130Z,15.97
2017-05-14T00:57:04.715Z,15.97
2017-05-14T00:57:45.306Z,15.95
2017-05-14T00:58:25.929Z,15.94
2017-05-14T00:59:06.525Z,16.01
2017-05-14T00:59:47.101Z,15.94
2017-05-14T01:00:27.671Z,15.98
2017-05-14T01:01:08.267Z,15.95
2017-05-14T01:01:48.854Z,16
2017-05-14T01:02:29.436Z,15.98
2017-05-14T01:03:10.003Z,15.97
2017-05-14T01:03:50.566Z,16.01
2017-05-14T01:04:31.137Z,16
2017-05-14T01:05:11.723Z,16.01
2017-05-14T01:05:52.297Z,15.97
2017-05-14T01:06:32.953Z,15.98
2017-05-14T01:07:13.527Z,15.9
2017-05-14T01:07:54.097Z,15.9
2017-05-14T01:08:34.674Z,16.01
2017-05-14T01:09:15.251Z,15.94
2017-05-14T01:09:55.825Z,15.97
2017-05-14T01:10:36.459Z,15.92
2017-05-14T01:11:17.035Z,15.91
2017-05-14T01:11:57.613Z,15.88
2017-05-14T01:12:38.192Z,15.98
2017-05-14T01:13:18.806Z,15.95
2017-05-14T01:13:59.396Z,15.91
2017-05-14T01:14:39.974Z,15.88
2017-05-14T01:15:20.535Z,15.92
2017-05-14T01:16:01.109Z,15.76
2017-05-14T01:16:41.685Z,15.73
2017-05-14T01:17:22.249Z,15.82
2017-05-14T01:18:02.850Z,15.83
2017-05-14T01:18:43.434Z,15.84
2017-05-14T01:19:24.022Z,15.86
2017-05-14T01:20:04.615Z,15.86
2017-05-14T01:20:45.211Z,15.77
2017-05-14T01:21:25.806Z,15.84
2017-05-14T01:22:06.393Z,15.79
2017-05-14T01:22:46.981Z,15.75
2017-05-14T01:23:27.547Z,15.79
2017-05-14T01:24:08.131Z,15.82
2017-05-14T01:24:48.715Z,15.76
2017-05-14T01:25:29.307Z,15.8
2017-05-14T01:26:09.904Z,15.75
2017-05-14T01:26:50.483Z,15.83
2017-05-14T01:27:31.057Z,15.77
2017-05-14T01:28:11.628Z,15.75
2017-05-14T01:28:52.198Z,15.76
2017-05-14T01:29:32.785Z,15.7
2017-05-14T01:30:13.370Z,15.67
2017-05-14T01:30:53.957Z,15.68
2017-05-14T01:31:34.558Z,15.72
2017-05-14T01:32:15.142Z,15.72
2017-05-14T01:32:55.712Z,15.65
2017-05-14T01:33:36.304Z,15.59
2017-05-14T01:34:16.873Z,15.59
2017-05-14T01:34:57.476Z,15.61
2017-05-14T01:35:38.056Z,15.62
2017-05-14T01:36:18.628Z,15.64
2017-05-14T01:36:59.207Z,15.61
2017-05-14T01:37:39.805Z,15.62
2017-05-14T01:38:20.379Z,15.57
2017-05-14T01:39:00.961Z,15.57
2017-05-14T01:39:41.541Z,15.57
2017-05-14T01:40:22.117Z,15.64
2017-05-14T01:41:02.709Z,15.59
2017-05-14T01:41:43.287Z,15.54
2017-05-14T01:42:23.866Z,15.52
2017-05-14T01:43:04.441Z,15.52
2017-05-14T01:43:45.026Z,15.58
2017-05-14T01:44:25.626Z,15.55
2017-05-14T01:45:06.227Z,15.58
2017-05-14T01:45:46.808Z,15.52
2017-05-14T01:46:27.393Z,15.51
2017-05-14T01:47:07.977Z,15.52
2017-05-14T01:47:48.554Z,15.58
2017-05-14T01:48:29.127Z,15.55
2017-05-14T01:49:09.706Z,15.52
2017-05-14T01:49:50.297Z,15.52
2017-05-14T01:50:30.875Z,15.57
2017-05-14T01:51:11.452Z,15.55
2017-05-14T01:51:52.020Z,15.58
2017-05-14T01:52:32.613Z,15.55
2017-05-14T01:53:13.203Z,15.52
2017-05-14T01:53:53.763Z,15.58
2017-05-14T01:54:34.343Z,15.52
2017-05-14T01:55:14.918Z,15.57
2017-05-14T01:55:55.514Z,15.57
2017-05-14T01:56:36.102Z,15.49
2017-05-14T01:57:16.695Z,15.52
2017-05-14T01:57:57.271Z,15.58
2017-05-14T01:58:37.872Z,15.51
2017-05-14T01:59:18.451Z,15.57
2017-05-14T01:59:59.021Z,15.58
2017-05-14T02:00:39.638Z,15.51
2017-05-14T02:01:20.198Z,15.51
2017-05-14T02:02:00.798Z,15.49
2017-05-14T02:02:41.365Z,15.43
2017-05-14T02:03:21.943Z,15.49
2017-05-14T02:04:02.545Z,15.54
2017-05-14T02:04:43.195Z,15.46
2017-05-14T02:05:23.776Z,15.46
2017-05-14T02:06:04.341Z,15.52
2017-05-14T02:06:44.908Z,15.44
2017-05-14T02:07:25.486Z,15.42
2017-05-14T02:08:06.091Z,15.46
2017-05-14T02:08:46.661Z,15.44
2017-05-14T02:09:27.238Z,15.46
2017-05-14T02:10:07.827Z,15.46
2017-05-14T02:10:48.418Z,15.35
2017-05-14T02:11:29.001Z,15.49
2017-05-14T02:12:09.601Z,15.31
2017-05-14T02:12:50.193Z,15.44
2017-05-14T02:13:30.814Z,15.35
2017-05-14T02:14:11.414Z,15.47
2017-05-14T02:14:51.992Z,15.36
2017-05-14T02:15:32.563Z,15.33
2017-05-14T02:16:13.157Z,15.4
2017-05-14T02:16:53.737Z,15.39
2017-05-14T02:17:34.315Z,15.33
2017-05-14T02:18:14.883Z,15.37
2017-05-14T02:18:55.461Z,15.43
2017-05-14T02:19:36.040Z,15.35
2017-05-14T02:20:16.635Z,15.44
2017-05-14T02:20:57.224Z,15.39
2017-05-14T02:21:37.785Z,15.39
2017-05-14T02:22:18.356Z,15.37
2017-05-14T02:22:58.947Z,15.36
2017-05-14T02:23:39.530Z,15.28
2017-05-14T02:24:20.126Z,15.39
2017-05-14T02:25:00.746Z,15.35
2017-05-14T02:25:41.315Z,15.22
2017-05-14T02:26:21.935Z,15.35
2017-05-14T02:27:02.495Z,15.24
2017-05-14T02:27:43.084Z,15.29
2017-05-14T02:28:23.686Z,15.24
2017-05-14T02:29:04.286Z,15.27
2017-05-14T02:29:44.879Z,15.29
2017-05-14T02:30:25.458Z,15.21
2017-05-14T02:31:06.024Z,15.27
2017-05-14T02:31:46.607Z,15.24
2017-05-14T02:32:27.181Z,15.22
2017-05-14T02:33:07.758Z,15.25
2017-05-14T02:33:48.388Z,15.25
2017-05-14T02:34:28.954Z,15.24
2017-05-14T02:35:09.531Z,15.24
2017-05-14T02:35:50.103Z,15.28
2017-05-14T02:36:30.682Z,15.19
2017-05-14T02:37:11.274Z,15.18
2017-05-14T02:37:51.852Z,15.28
2017-05-14T02:38:32.419Z,15.1
2017-05-14T02:39:13.031Z,15.25
2017-05-14T02:39:53.616Z,15.19
2017-05-14T02:40:34.200Z,15.19
2017-05-14T02:41:14.763Z,15.19
2017-05-14T02:41:55.341Z,15.27
2017-05-14T02:42:35.955Z,15.19
2017-05-14T02:43:16.541Z,15.15
2017-05-14T02:43:57.128Z,15.15
2017-05-14T02:44:37.694Z,15.19
2017-05-14T02:45:18.260Z,15.25
2017-05-14T02:45:58.843Z,15.19
2017-05-14T02:46:39.417Z,15.21
2017-05-14T02:47:20.008Z,15.17
2017-05-14T02:48:00.602Z,15.24
2017-05-14T02:48:41.189Z,15.21
2017-05-14T02:49:21.778Z,15.25
2017-05-14T02:50:02.353Z,15.17
2017-05-14T02:50:42.940Z,15.19
2017-05-14T02:51:23.514Z,15.18
2017-05-14T02:52:04.117Z,15.11
2017-05-14T02:52:44.733Z,15.09
2017-05-14T02:53:25.342Z,15.09
2017-05-14T02:54:05.906Z,15.07
2017-05-14T02:54:46.477Z,15.21
2017-05-14T02:55:27.074Z,15.09
2017-05-14T02:56:07.672Z,15.15
2017-05-14T02:56:48.244Z,15.09
2017-05-14T02:57:28.846Z,15.09
2017-05-14T02:58:09.432Z,15.14
2017-05-14T02:58:50.001Z,15.18
2017-05-14T02:59:30.571Z,15.1
2017-05-14T03:00:11.152Z,15.14
2017-05-14T03:00:51.752Z,15.1
2017-05-14T03:01:32.324Z,15.04
2017-05-14T03:02:12.880Z,15.09
2017-05-14T03:02:53.504Z,15.02
2017-05-14T03:03:34.045Z,14.97
2017-05-14T03:04:14.604Z,14.99
2017-05-14T03:04:55.182Z,15.04
2017-05-14T03:05:35.755Z,14.99
2017-05-14T03:06:16.355Z,14.92
2017-05-14T03:06:56.937Z,15.03
2017-05-14T03:07:37.524Z,14.99
2017-05-14T03:08:18.096Z,14.96
2017-05-14T03:08:58.667Z,14.97
2017-05-14T03:09:39.265Z,14.97
2017-05-14T03:10:19.826Z,14.99
2017-05-14T03:11:00.402Z,14.97
2017-05-14T03:11:40.969Z,15.03
2017-05-14T03:12:21.554Z,14.99
2017-05-14T03:13:02.122Z,14.97
2017-05-14T03:13:42.730Z,14.99
2017-05-14T03:14:23.294Z,14.91
2017-05-14T03:15:03.871Z,14.94
2017-05-14T03:15:44.462Z,15.02
2017-05-14T03:16:25.037Z,14.94
2017-05-14T03:17:05.599Z,14.97
2017-05-14T03:17:46.196Z,14.91
2017-05-14T03:18:26.764Z,14.96
2017-05-14T03:19:07.356Z,14.94
2017-05-14T03:19:47.934Z,14.99
2017-05-14T03:20:28.519Z,14.89
2017-05-14T03:21:09.106Z,15.04
2017-05-14T03:21:49.708Z,14.91
2017-05-14T03:22:30.281Z,14.89
2017-05-14T03:23:10.872Z,14.96
2017-05-14T03:23:51.482Z,14.91
2017-05-14T03:24:32.074Z,14.94
2017-05-14T03:25:12.650Z,14.85
2017-05-14T03:25:53.232Z,14.88
2017-05-14T03:26:33.847Z,14.82
2017-05-14T03:27:14.456Z,14.84
2017-05-14T03:27:55.045Z,14.86
2017-05-14T03:28:35.610Z,14.89
2017-05-14T03:29:16.189Z,14.86
2017-05-14T03:29:56.791Z,14.88
2017-05-14T03:30:37.410Z,14.85
2017-05-14T03:31:18.013Z,14.81
2017-05-14T03:31:58.596Z,14.86
2017-05-14T03:32:39.159Z,14.82
2017-05-14T03:33:19.768Z,14.86
2017-05-14T03:34:00.344Z,14.69
2017-05-14T03:34:40.973Z,14.81
2017-05-14T03:35:21.548Z,14.78
2017-05-14T03:36:02.118Z,14.81
2017-05-14T03:36:42.693Z,14.77
2017-05-14T03:37:23.284Z,14.81
2017-05-14T03:38:03.877Z,14.81
2017-05-14T03:38:44.472Z,14.66
2017-05-14T03:39:25.056Z,14.79
2017-05-14T03:40:05.681Z,14.72
2017-05-14T03:40:46.270Z,14.7
2017-05-14T03:41:26.850Z,14.77
2017-05-14T03:42:07.492Z,14.69
2017-05-14T03:42:48.074Z,14.72
2017-05-14T03:43:28.684Z,14.72
2017-05-14T03:44:09.284Z,14.72
2017-05-14T03:44:49.879Z,14.66
2017-05-14T03:45:30.481Z,14.68
2017-05-14T03:46:11.051Z,14.68
2017-05-14T03:46:51.641Z,14.69
2017-05-14T03:47:32.217Z,14.73
2017-05-14T03:48:12.798Z,14.72
2017-05-14T03:48:53.373Z,14.62
2017-05-14T03:49:33.960Z,14.66
2017-05-14T03:50:14.543Z,14.66
2017-05-14T03:50:55.130Z,14.69
2017-05-14T03:51:35.723Z,14.65
2017-05-14T03:52:16.293Z,14.65
2017-05-14T03:52:56.901Z,14.63
2017-05-14T03:53:37.486Z,14.66
2017-05-14T03:54:18.063Z,14.65
2017-05-14T03:54:58.638Z,14.68
2017-05-14T03:55:39.226Z,14.69
2017-05-14T03:56:19.818Z,14.63
2017-05-14T03:57:00.394Z,14.65
2017-05-14T03:57:40.969Z,14.7
2017-05-14T03:58:21.537Z,14.7
2017-05-14T03:59:02.122Z,14.6
2017-05-14T03:59:42.703Z,14.69
2017-05-14T04:00:23.290Z,14.59
2017-05-14T04:01:03.885Z,14.6
2017-05-14T04:01:44.470Z,14.59
2017-05-14T04:02:25.066Z,14.55
2017-05-14T04:03:05.659Z,14.55
2017-05-14T04:03:46.223Z,14.58
2017-05-14T04:04:26.804Z,14.66
2017-05-14T04:05:07.373Z,14.58
2017-05-14T04:05:47.962Z,14.69
2017-05-14T04:06:28.549Z,14.7
2017-05-14T04:07:09.126Z,14.65
2017-05-14T04:07:49.697Z,14.69
2017-05-14T04:08:30.266Z,14.66
2017-05-14T04:09:10.857Z,14.62
2017-05-14T04:09:51.438Z,14.69
2017-05-14T04:10:32.031Z,14.69
2017-05-14T04:11:12.594Z,14.69
2017-05-14T04:11:53.217Z,14.69
2017-05-14T04:12:33.817Z,14.78
2017-05-14T04:13:14.400Z,14.69
2017-05-14T04:13:54.989Z,14.65
2017-05-14T04:14:35.584Z,14.69
2017-05-14T04:15:16.151Z,14.79
2017-05-14T04:15:56.735Z,14.81
2017-05-14T04:16:37.318Z,14.84
2017-05-14T04:17:17.905Z,14.79
2017-05-14T04:17:58.494Z,14.84
2017-05-14T04:18:39.074Z,14.81
2017-05-14T04:19:19.642Z,14.86
2017-05-14T04:20:00.206Z,14.81
2017-05-14T04:20:40.854Z,14.82
2017-05-14T04:21:21.450Z,14.78
2017-05-14T04:22:02.049Z,14.85
2017-05-14T04:22:42.642Z,14.86
2017-05-14T04:23:23.208Z,14.89
2017-05-14T04:24:03.785Z,14.92
2017-05-14T04:24:44.351Z,14.92
2017-05-14T04:25:24.944Z,14.88
2017-05-14T04:26:05.538Z,14.92
2017-05-14T04:26:46.140Z,14.91
2017-05-14T04:27:26.713Z,14.91
2017-05-14T04:28:07.288Z,15
2017-05-14T04:28:47.884Z,15
2017-05-14T04:29:28.476Z,14.94
2017-05-14T04:30:09.051Z,14.94
2017-05-14T04:30:49.631Z,14.91
2017-05-14T04:31:30.214Z,14.97
2017-05-14T04:32:10.796Z,14.96
2017-05-14T04:32:51.384Z,15.02
2017-05-14T04:33:31.969Z,14.99
2017-05-14T04:34:12.587Z,14.94
2017-05-14T04:34:53.157Z,14.94
2017-05-14T04:35:33.739Z,14.97
2017-05-14T04:36:14.337Z,15.02
2017-05-14T04:36:54.901Z,15
2017-05-14T04:37:35.501Z,15.11
2017-05-14T04:38:16.092Z,15.04
2017-05-14T04:38:56.695Z,15.02
2017-05-14T04:39:37.293Z,15.04
2017-05-14T04:40:17.865Z,15.06
2017-05-14T04:40:58.465Z,15.03
2017-05-14T04:41:39.049Z,15.03
2017-05-14T04:42:19.644Z,15.17
2017-05-14T04:43:00.210Z,15.04
2017-05-14T04:43:40.789Z,15.11
2017-05-14T04:44:21.383Z,15.1
2017-05-14T04:45:01.941Z,15.09
2017-05-14T04:45:42.554Z,15.14
2017-05-14T04:46:23.139Z,15.17
2017-05-14T04:47:03.713Z,15.09
2017-05-14T04:47:44.303Z,15.07
2017-05-14T04:48:24.875Z,15.1
2017-05-14T04:49:05.456Z,15.11
2017-05-14T04:49:46.064Z,15.07
2017-05-14T04:50:26.667Z,15.06
2017-05-14T04:51:07.271Z,15.06
2017-05-14T04:51:47.859Z,15.09
2017-05-14T04:52:28.441Z,15.22
2017-05-14T04:53:09.051Z,15.17
2017-05-14T04:53:49.620Z,15.15
2017-05-14T04:54:30.206Z,15.19
2017-05-14T04:55:10.796Z,15.22
2017-05-14T04:55:51.375Z,15.17
2017-05-14T04:56:31.968Z,15.25
2017-05-14T04:57:12.561Z,15.27
2017-05-14T04:57:53.148Z,15.17
2017-05-14T04:58:33.736Z,15.27
2017-05-14T04:59:14.322Z,15.24
2017-05-14T04:59:54.907Z,15.25
2017-05-14T05:00:35.473Z,15.22
2017-05-14T05:01:16.058Z,15.22
2017-05-14T05:01:56.637Z,15.28
2017-05-14T05:02:37.231Z,15.28
2017-05-14T05:03:17.842Z,15.33
2017-05-14T05:03:58.417Z,15.28
2017-05-14T05:04:39.005Z,15.33
2017-05-14T05:05:19.614Z,15.27
2017-05-14T05:06:00.208Z,15.25
2017-05-14T05:06:40.788Z,15.25
2017-05-14T05:07:21.373Z,15.4
2017-05-14T05:08:01.983Z,15.35
2017-05-14T05:08:42.572Z,15.44
2017-05-14T05:09:23.194Z,15.29
2017-05-14T05:10:03.776Z,15.35
2017-05-14T05:10:44.359Z,15.44
2017-05-14T05:11:24.958Z,15.35
2017-05-14T05:12:05.536Z,15.42
2017-05-14T05:12:46.109Z,15.47
2017-05-14T05:13:26.712Z,15.42
2017-05-14T05:14:07.296Z,15.42
2017-05-14T05:14:47.881Z,15.37
2017-05-14T05:15:28.468Z,15.37
2017-05-14T05:16:09.057Z,15.39
2017-05-14T05:16:49.638Z,15.42
2017-05-14T05:17:30.245Z,15.47
2017-05-14T05:18:10.822Z,15.49
2017-05-14T05:18:51.421Z,15.49
2017-05-14T05:19:31.993Z,15.52
2017-05-14T05:20:12.563Z,15.47
2017-05-14T05:20:53.140Z,15.51
2017-05-14T05:21:33.708Z,15.46
2017-05-14T05:22:14.287Z,15.52
2017-05-14T05:22:54.870Z,15.52
2017-05-14T05:23:35.453Z,15.64
2017-05-14T05:24:16.029Z,15.59
2017-05-14T05:24:56.627Z,15.61
2017-05-14T05:25:37.220Z,15.59
2017-05-14T05:26:17.783Z,15.61
2017-05-14T05:26:58.360Z,15.55
2017-05-14T05:27:38.949Z,15.57
2017-05-14T05:28:19.573Z,15.61
2017-05-14T05:29:00.168Z,15.59
2017-05-14T05:29:40.789Z,15.58
2017-05-14T05:30:21.383Z,15.61
2017-05-14T05:31:01.971Z,15.65
2017-05-14T05:31:42.583Z,15.68
2017-05-14T05:32:23.205Z,15.67
2017-05-14T05:33:03.793Z,15.75
2017-05-14T05:33:44.371Z,15.82
2017-05-14T05:34:24.993Z,15.88
2017-05-14T05:35:05.604Z,15.88
2017-05-14T05:35:46.182Z,16
2017-05-14T05:36:26.768Z,16.01
2017-05-14T05:37:07.365Z,16.1
2017-05-14T05:37:47.965Z,16.21
2017-05-14T05:38:28.569Z,16.26
2017-05-14T05:39:09.145Z,16.33
2017-05-14T05:39:49.738Z,16.41
2017-05-14T05:40:30.369Z,16.5
2017-05-14T05:41:10.903Z,16.56
2017-05-14T05:41:51.523Z,16.61
2017-05-14T05:42:32.112Z,16.71
2017-05-14T05:43:12.696Z,16.78
2017-05-14T05:43:53.282Z,16.76
2017-05-14T05:44:33.858Z,16.84
2017-05-14T05:45:14.484Z,16.89
2017-05-14T05:45:55.075Z,17.01
2017-05-14T05:46:35.649Z,17.05
2017-05-14T05:47:16.263Z,17.22
2017-05-14T05:47:56.865Z,17.14
2017-05-14T05:48:37.470Z,17.34
2017-05-14T05:49:18.059Z,17.42
2017-05-14T05:49:58.641Z,17.46
2017-05-14T05:50:39.248Z,17.57
2017-05-14T05:51:19.848Z,17.64
2017-05-14T05:52:00.461Z,17.7
2017-05-14T05:52:41.079Z,17.74
2017-05-14T05:53:21.667Z,17.82
2017-05-14T05:54:02.293Z,17.9
2017-05-14T05:54:42.907Z,17.92
2017-05-14T05:55:23.489Z,18.03
2017-05-14T05:56:04.071Z,18.15
2017-05-14T05:56:44.665Z,18.22
2017-05-14T05:57:25.251Z,18.13
2017-05-14T05:58:05.842Z,18.33
2017-05-14T05:58:46.419Z,18.33
2017-05-14T05:59:27.077Z,18.41
2017-05-14T06:00:07.659Z,18.49
2017-05-14T06:00:48.243Z,18.62
2017-05-14T06:01:28.842Z,18.65
2017-05-14T06:02:09.421Z,18.75
2017-05-14T06:02:50.050Z,18.81
2017-05-14T06:03:30.681Z,18.89
2017-05-14T06:04:11.288Z,19.04
2017-05-14T06:04:51.891Z,19.02
2017-05-14T06:05:32.472Z,19.18
2017-05-14T06:06:13.075Z,19.19
2017-05-14T06:06:53.653Z,19.3
2017-05-14T06:07:34.273Z,19.41
2017-05-14T06:08:14.856Z,19.49
2017-05-14T06:08:55.464Z,19.51
2017-05-14T06:09:36.058Z,19.63
2017-05-14T06:10:16.640Z,19.62
2017-05-14T06:10:57.245Z,19.67
2017-05-14T06:11:37.830Z,19.82
2017-05-14T06:12:18.452Z,19.79
2017-05-14T06:12:59.037Z,19.89
2017-05-14T06:13:39.648Z,19.95
2017-05-14T06:14:20.237Z,19.96
2017-05-14T06:15:00.827Z,19.99
2017-05-14T06:15:41.582Z,20.06
2017-05-14T06:16:22.127Z,20.25
2017-05-14T06:17:02.717Z,20.13
2017-05-14T06:17:43.321Z,20.1
2017-05-14T06:18:23.917Z,20.31
2017-05-14T06:19:04.510Z,20.31
2017-05-14T06:19:45.111Z,20.34
2017-05-14T06:20:25.711Z,20.4
2017-05-14T06:21:06.320Z,20.32
2017-05-14T06:21:46.907Z,20.51
2017-05-14T06:22:27.500Z,20.48
2017-05-14T06:23:08.094Z,20.63
2017-05-14T06:23:48.695Z,20.75
2017-05-14T06:24:29.275Z,20.7
2017-05-14T06:25:09.860Z,20.8
2017-05-14T06:25:50.482Z,20.85
2017-05-14T06:26:31.067Z,20.96
2017-05-14T06:27:11.691Z,20.95
2017-05-14T06:27:52.272Z,21.02
2017-05-14T06:28:32.865Z,21.11
2017-05-14T06:29:13.456Z,21.24
2017-05-14T06:29:54.056Z,21.3
2017-05-14T06:30:34.643Z,21.35
2017-05-14T06:31:15.250Z,21.46
2017-05-14T06:31:55.849Z,21.51
2017-05-14T06:32:36.438Z,21.57
2017-05-14T06:33:17.019Z,21.55
2017-05-14T06:33:57.599Z,21.72
2017-05-14T06:34:38.191Z,21.82
2017-05-14T06:35:18.807Z,21.91
2017-05-14T06:35:59.411Z,21.91
2017-05-14T06:36:40.021Z,21.91
2017-05-14T06:37:20.625Z,22
2017-05-14T06:38:01.209Z,22.06
2017-05-14T06:38:41.797Z,22.07
2017-05-14T06:39:22.419Z,22.07
2017-05-14T06:40:03.017Z,22.2
2017-05-14T06:40:43.679Z,22.17
2017-05-14T06:41:24.265Z,22.14
2017-05-14T06:42:04.839Z,22.2
2017-05-14T06:42:45.430Z,22.29
2017-05-14T06:43:26.016Z,22.25
2017-05-14T06:44:06.611Z,22.33
2017-05-14T06:44:47.202Z,22.36
2017-05-14T06:45:27.810Z,22.43
2017-05-14T06:46:08.434Z,22.44
2017-05-14T06:46:49.074Z,22.38
2017-05-14T06:47:29.676Z,22.48
2017-05-14T06:48:10.278Z,22.54
2017-05-14T06:48:50.858Z,22.5
2017-05-14T06:49:31.443Z,22.5
2017-05-14T06:50:12.062Z,22.44
2017-05-14T06:50:52.665Z,22.48
2017-05-14T06:51:33.242Z,22.48
2017-05-14T06:52:13.837Z,22.53
2017-05-14T06:52:54.412Z,22.55
2017-05-14T06:53:34.999Z,22.51
2017-05-14T06:54:15.572Z,22.62
2017-05-14T06:54:56.165Z,22.6
2017-05-14T06:55:36.754Z,22.59
2017-05-14T06:56:17.337Z,22.5
2017-05-14T06:56:57.914Z,22.35
2017-05-14T06:57:38.523Z,22.29
2017-05-14T06:58:19.619Z,22.23
2017-05-14T06:59:02.241Z,22.11
2017-05-14T06:59:43.756Z,22.11
2017-05-14T07:00:26.997Z,22.06
2017-05-14T07:01:12.520Z,22.11
2017-05-14T07:01:58.069Z,22.17
2017-05-14T07:02:39.651Z,22.2
2017-05-14T07:03:20.240Z,22.26
2017-05-14T07:04:00.841Z,22.43
2017-05-14T07:04:41.422Z,22.45
2017-05-14T07:05:22.000Z,22.48
2017-05-14T07:06:02.596Z,22.63
2017-05-14T07:06:43.200Z,22.66
2017-05-14T07:07:23.799Z,22.8
2017-05-14T07:08:04.393Z,22.8
2017-05-14T07:08:44.984Z,22.83
2017-05-14T07:09:25.571Z,22.93
2017-05-14T07:10:06.164Z,22.98
2017-05-14T07:10:46.746Z,22.99
2017-05-14T07:11:27.330Z,23.05
2017-05-14T07:12:07.917Z,23.09
2017-05-14T07:12:48.538Z,23.15
2017-05-14T07:13:29.121Z,23.21
2017-05-14T07:14:09.716Z,23.25
2017-05-14T07:14:50.296Z,23.24
2017-05-14T07:15:30.895Z,23.31
2017-05-14T07:16:11.472Z,23.36
2017-05-14T07:16:52.039Z,23.36
2017-05-14T07:17:32.633Z,23.36
2017-05-14T07:18:13.249Z,23.41
2017-05-14T07:18:53.856Z,23.36
2017-05-14T07:19:34.440Z,23.5
2017-05-14T07:20:15.037Z,23.59
2017-05-14T07:20:55.652Z,23.62
2017-05-14T07:21:36.239Z,23.61
2017-05-14T07:22:16.828Z,23.65
2017-05-14T07:22:57.440Z,23.63
2017-05-14T07:23:38.023Z,23.74
2017-05-14T07:24:18.646Z,23.71
2017-05-14T07:24:59.237Z,23.77
2017-05-14T07:25:39.815Z,23.71
2017-05-14T07:26:20.431Z,23.76
2017-05-14T07:27:01.022Z,23.74
2017-05-14T07:27:41.656Z,23.78
2017-05-14T07:28:22.243Z,23.87
2017-05-14T07:29:02.837Z,23.81
2017-05-14T07:29:43.451Z,23.92
2017-05-14T07:30:24.064Z,24.03
2017-05-14T07:31:04.654Z,24.08
2017-05-14T07:31:45.245Z,24.14
2017-05-14T07:32:25.832Z,24.1
2017-05-14T07:33:06.440Z,24.16
2017-05-14T07:33:47.181Z,24.18
2017-05-14T07:34:28.097Z,24.11
2017-05-14T07:35:08.975Z,24.03
2017-05-14T07:35:49.976Z,24.05
2017-05-14T07:36:30.919Z,24.02
2017-05-14T07:37:12.211Z,24.1
2017-05-14T07:37:53.127Z,24.14
2017-05-14T07:38:34.336Z,24.1
2017-05-14T07:39:15.117Z,24.16
2017-05-14T07:39:55.731Z,24.13
2017-05-14T07:40:36.323Z,24.13
2017-05-14T07:41:16.969Z,24.2
2017-05-14T07:41:58.461Z,24.14
2017-05-14T07:42:39.540Z,24.16
2017-05-14T07:43:20.573Z,24.17
2017-05-14T07:44:01.191Z,24.23
2017-05-14T07:44:41.780Z,24.33
2017-05-14T07:45:22.855Z,24.33
2017-05-14T07:46:03.716Z,24.33
2017-05-14T07:46:44.468Z,24.36
2017-05-14T07:47:25.217Z,24.4
2017-05-14T07:48:05.819Z,24.35
2017-05-14T07:48:46.533Z,24.32
2017-05-14T07:49:27.473Z,24.28
2017-05-14T07:50:08.603Z,24.18
2017-05-14T07:50:49.473Z,24.08
2017-05-14T07:51:30.021Z,24.14
2017-05-14T07:52:10.997Z,23.99
2017-05-14T07:52:52.013Z,23.95
2017-05-14T07:53:32.677Z,23.99
2017-05-14T07:54:13.292Z,23.99
2017-05-14T07:54:53.881Z,23.95
2017-05-14T07:55:34.495Z,24.1
2017-05-14T07:56:15.304Z,24.11
2017-05-14T07:56:56.109Z,24.1
2017-05-14T07:57:36.792Z,24.05
2017-05-14T07:58:17.578Z,24.03
2017-05-14T07:58:58.297Z,24.13
2017-05-14T07:59:38.922Z,24.11
2017-05-14T08:00:19.496Z,24.05
2017-05-14T08:01:00.069Z,24.16
2017-05-14T08:01:40.719Z,24.08
2017-05-14T08:02:21.308Z,24.17
2017-05-14T08:03:02.142Z,24.05
2017-05-14T08:04:49.731Z,24.16
2017-05-14T08:05:30.322Z,24.1
2017-05-14T08:06:10.917Z,24.1
2017-05-14T08:06:51.580Z,24.13
2017-05-14T08:07:32.140Z,24.08
2017-05-14T08:08:12.748Z,24.02
2017-05-14T08:08:53.360Z,24.06
2017-05-14T08:09:33.933Z,24.1
2017-05-14T08:10:14.534Z,24.11
2017-05-14T08:10:55.111Z,24.18
2017-05-14T08:11:35.702Z,24.1
2017-05-14T08:12:16.292Z,24.13
2017-05-14T08:12:56.910Z,24.23
2017-05-14T08:13:37.498Z,24.3
2017-05-14T08:14:18.092Z,24.33
2017-05-14T08:14:58.666Z,24.4
2017-05-14T08:15:39.235Z,24.53
2017-05-14T08:16:19.818Z,24.43
2017-05-14T08:17:00.468Z,24.48
2017-05-14T08:17:41.062Z,24.42
2017-05-14T08:18:21.667Z,24.43
2017-05-14T08:19:02.264Z,24.51
2017-05-14T08:19:42.889Z,24.5
2017-05-14T08:20:23.474Z,24.54
2017-05-14T08:21:04.069Z,24.54
2017-05-14T08:21:44.636Z,24.61
2017-05-14T08:22:25.226Z,24.63
2017-05-14T08:23:05.810Z,24.68
2017-05-14T08:23:46.400Z,24.6
2017-05-14T08:24:27.020Z,24.61
2017-05-14T08:25:07.590Z,24.48
2017-05-14T08:25:48.193Z,24.48
2017-05-14T08:26:28.760Z,24.32
2017-05-14T08:27:09.408Z,24.26
2017-05-14T08:27:50.023Z,24.13
2017-05-14T08:28:30.621Z,24.1
2017-05-14T08:29:11.206Z,23.81
2017-05-14T08:29:51.775Z,23.73
2017-05-14T08:30:32.371Z,23.59
2017-05-14T08:31:12.963Z,23.56
2017-05-14T08:31:53.552Z,23.48
2017-05-14T08:32:34.142Z,23.59
2017-05-14T08:33:14.727Z,23.59
2017-05-14T08:33:55.347Z,23.58
2017-05-14T08:34:35.918Z,23.55
2017-05-14T08:35:16.505Z,23.61
2017-05-14T08:35:57.089Z,23.73
2017-05-14T08:36:37.668Z,23.71
2017-05-14T08:37:18.277Z,23.61
2017-05-14T08:37:58.873Z,23.69
2017-05-14T08:38:39.457Z,23.68
2017-05-14T08:39:20.077Z,23.62
2017-05-14T08:40:01.042Z,23.62
2017-05-14T08:40:42.381Z,23.69
2017-05-14T08:41:25.913Z,23.59
2017-05-14T08:42:07.098Z,23.66
2017-05-14T08:42:49.854Z,23.69
2017-05-14T08:43:38.950Z,23.77
2017-05-14T08:44:25.531Z,23.78
2017-05-14T08:45:08.809Z,23.99
2017-05-14T08:45:57.938Z,23.98
2017-05-14T08:46:42.806Z,23.96